Time;durP1;ratioP1;P1;durP2;ratioP2;P2;SDS_P1;SDS_P2;PMS_P1;PMS_P2;Temp;Humidity;BMP_temperature;BMP_pressure;BME280_temperature;BME280_humidity;BME280_pressure;Samples;Min_cycle;Max_cycle;Signal;HPM_P1;HPM_P2
2023/07/31 00:01:28;;;;;;;3.65;1.00;;;;;;;16.95;100.00;99480.88;5034743;28;20411;-63
2023/07/31 00:03:55;;;;;;;3.75;1.00;;;;;;;16.88;100.00;99490.28;5047651;28;20106;-63
2023/07/31 00:06:21;;;;;;;3.88;1.20;;;;;;;16.83;100.00;99489.78;5035810;28;20098;-63
2023/07/31 00:08:48;;;;;;;3.17;0.95;;;;;;;16.80;100.00;99493.53;5034936;28;20076;-64
2023/07/31 00:11:15;;;;;;;3.30;1.02;;;;;;;16.77;100.00;99493.78;5025983;28;20398;-64
2023/07/31 00:13:41;;;;;;;2.38;0.90;;;;;;;16.73;100.00;99486.22;5029959;28;20041;-64
2023/07/31 00:16:08;;;;;;;2.30;1.00;;;;;;;16.69;100.00;99486.47;5031181;28;20049;-63
2023/07/31 00:18:35;;;;;;;2.55;1.05;;;;;;;16.68;100.00;99489.28;5035040;28;20053;-63
2023/07/31 00:21:01;;;;;;;3.05;1.13;;;;;;;16.66;100.00;99480.59;5026589;28;20490;-63
2023/07/31 00:23:28;;;;;;;2.67;1.00;;;;;;;16.74;100.00;99483.47;5034763;28;20047;-64
2023/07/31 00:25:55;;;;;;;2.42;1.00;;;;;;;16.52;100.00;99484.41;5030036;28;20415;-63
2023/07/31 00:28:21;;;;;;;3.35;1.05;;;;;;;16.45;100.00;99483.22;5033237;28;20073;-63
2023/07/31 00:30:48;;;;;;;2.45;1.00;;;;;;;16.41;100.00;99468.59;5024306;28;20078;-64
2023/07/31 00:33:14;;;;;;;2.80;0.90;;;;;;;16.45;100.00;99467.38;5025609;28;20056;-63
2023/07/31 00:35:41;;;;;;;5.97;1.05;;;;;;;16.45;100.00;99486.72;5030084;28;20056;-64
2023/07/31 00:38:08;;;;;;;3.28;1.00;;;;;;;16.30;100.00;99478.22;5030119;28;20053;-63
2023/07/31 00:40:37;;;;;;;4.40;1.13;;;;;;;16.16;100.00;99477.69;5026718;28;20049;-64
2023/07/31 00:43:04;;;;;;;3.83;0.98;;;;;;;16.20;100.00;99466.75;5032235;28;20045;-64
2023/07/31 00:45:32;;;;;;;2.83;0.98;;;;;;;16.18;100.00;99475.75;5030670;28;20128;-63
2023/07/31 00:47:59;;;;;;;2.95;1.08;;;;;;;16.10;100.00;99464.00;5035034;28;20191;-63
2023/07/31 00:50:26;;;;;;;3.13;1.00;;;;;;;16.16;100.00;99475.03;5027326;28;20050;-64
2023/07/31 00:52:53;;;;;;;3.33;1.20;;;;;;;16.06;100.00;99472.28;5050060;28;20045;-63
2023/07/31 00:55:21;;;;;;;4.65;1.42;;;;;;;16.00;100.00;99467.53;5038385;28;20135;-63
2023/07/31 00:57:49;;;;;;;2.92;1.00;;;;;;;15.74;100.00;99458.09;5043785;28;20055;-63
2023/07/31 01:00:15;;;;;;;2.83;1.05;;;;;;;15.69;100.00;99462.88;5026893;28;20509;-63
2023/07/31 01:02:42;;;;;;;2.72;1.00;;;;;;;15.55;100.00;99458.66;5032073;28;20053;-63
2023/07/31 01:05:09;;;;;;;2.90;1.10;;;;;;;15.59;100.00;99480.38;5040419;28;20816;-64
2023/07/31 01:07:49;;;;;;;2.50;1.13;;;;;;;15.60;100.00;99482.06;5031168;28;20061;-64
2023/07/31 01:10:17;;;;;;;2.65;1.00;;;;;;;15.57;100.00;99477.00;5037777;28;20077;-63
2023/07/31 01:12:46;;;;;;;3.00;0.90;;;;;;;15.62;100.00;99471.41;5035476;28;20063;-63
2023/07/31 01:15:14;;;;;;;2.65;0.90;;;;;;;15.50;100.00;99475.81;5049958;28;20534;-64
2023/07/31 01:17:42;;;;;;;2.78;1.00;;;;;;;15.33;100.00;99456.88;5048896;28;20053;-64
2023/07/31 01:20:17;;;;;;;2.30;0.90;;;;;;;15.53;100.00;99472.94;5027432;28;20057;-63
2023/07/31 01:23:00;;;;;;;2.45;0.90;;;;;;;15.58;100.00;99481.31;5037164;28;20299;-64
2023/07/31 01:26:10;;;;;;;3.47;1.05;;;;;;;15.55;100.00;99471.84;5013833;28;20050;-63
2023/07/31 01:29:00;;;;;;;3.33;1.20;;;;;;;15.51;100.00;99473.06;5031190;28;20041;-63
2023/07/31 01:31:29;;;;;;;1.67;0.90;;;;;;;15.51;100.00;99475.72;5034792;28;20137;-63
2023/07/31 01:33:59;;;;;;;2.35;1.08;;;;;;;15.48;100.00;99468.03;5029227;28;20053;-63
2023/07/31 01:36:27;;;;;;;2.53;1.10;;;;;;;15.50;100.00;99473.19;5026305;28;20161;-63
2023/07/31 01:38:59;;;;;;;3.65;1.13;;;;;;;15.46;100.00;99463.84;5030297;28;20085;-63
2023/07/31 01:41:26;;;;;;;3.78;1.17;;;;;;;15.36;100.00;99439.97;5027794;28;20128;-64
2023/07/31 01:43:53;;;;;;;2.00;1.00;;;;;;;15.46;100.00;99463.84;5043805;28;20042;-63
2023/07/31 01:46:19;;;;;;;5.78;1.13;;;;;;;15.42;100.00;99454.47;5037534;28;20053;-63
2023/07/31 01:48:46;;;;;;;4.13;1.15;;;;;;;15.29;100.00;99454.59;5049658;28;20076;-63
2023/07/31 01:51:12;;;;;;;3.15;1.15;;;;;;;15.21;100.00;99442.00;5031018;28;20052;-64
2023/07/31 01:53:39;;;;;;;2.63;1.00;;;;;;;15.30;100.00;99433.38;5050145;28;20422;-64
2023/07/31 01:56:06;;;;;;;4.93;1.17;;;;;;;15.13;100.00;99441.75;5046312;28;20065;-64
2023/07/31 01:58:32;;;;;;;3.53;1.27;;;;;;;14.95;100.00;99425.56;5025258;28;20510;-63
2023/07/31 02:00:59;;;;;;;3.35;1.08;;;;;;;14.81;100.00;99430.09;5036021;28;20598;-63
2023/07/31 02:03:26;;;;;;;2.95;1.20;;;;;;;14.84;100.00;99429.03;5023607;28;20507;-63
2023/07/31 02:05:54;;;;;;;5.78;1.10;;;;;;;14.96;100.00;99430.72;5047261;28;20053;-63
2023/07/31 02:08:21;;;;;;;3.28;1.10;;;;;;;14.90;100.00;99436.44;5033037;28;20045;-63
2023/07/31 02:10:47;;;;;;;4.95;1.17;;;;;;;14.84;100.00;99422.91;5030435;28;20072;-63
2023/07/31 02:13:14;;;;;;;2.67;1.05;;;;;;;14.98;100.00;99425.34;5046910;28;20041;-63
2023/07/31 02:15:40;;;;;;;3.70;1.33;;;;;;;14.88;100.00;99414.66;5044596;28;20064;-63
2023/07/31 02:18:07;;;;;;;3.17;1.10;;;;;;;14.88;100.00;99409.38;5037880;28;20406;-64
2023/07/31 02:20:35;;;;;;;2.33;1.00;;;;;;;14.82;100.00;99420.41;5043755;28;20476;-63
2023/07/31 02:23:02;;;;;;;3.35;1.00;;;;;;;14.76;100.00;99421.69;5014606;28;20045;-64
2023/07/31 02:25:29;;;;;;;4.07;1.40;;;;;;;14.68;100.00;99407.41;5031119;28;20054;-63
2023/07/31 02:27:56;;;;;;;3.30;1.10;;;;;;;14.71;100.00;99407.19;5031574;28;20061;-63
2023/07/31 02:30:23;;;;;;;5.53;1.30;;;;;;;14.76;100.00;99397.97;5045595;28;20050;-63
2023/07/31 02:32:50;;;;;;;3.00;1.17;;;;;;;14.64;100.00;99392.81;5030401;28;20065;-63
2023/07/31 02:35:18;;;;;;;5.15;1.20;;;;;;;14.75;100.00;99408.63;5051325;28;20506;-63
2023/07/31 02:37:45;;;;;;;3.28;1.08;;;;;;;14.69;100.00;99406.47;5052436;28;20107;-63
2023/07/31 02:40:12;;;;;;;2.00;0.90;;;;;;;14.64;100.00;99390.16;5046901;28;20190;-63
2023/07/31 02:42:38;;;;;;;2.42;1.10;;;;;;;14.69;100.00;99398.56;5030202;28;20360;-63
2023/07/31 02:45:06;;;;;;;2.67;0.90;;;;;;;14.74;100.00;99402.53;5051444;28;20053;-64
2023/07/31 02:47:32;;;;;;;2.05;0.95;;;;;;;14.74;100.00;99396.41;5052364;28;20063;-63
2023/07/31 02:49:59;;;;;;;3.17;1.13;;;;;;;14.64;100.00;99392.81;5041901;28;20054;-63
2023/07/31 02:52:26;;;;;;;3.20;1.20;;;;;;;14.52;100.00;99373.47;5034037;28;20049;-63
2023/07/31 02:54:53;;;;;;;2.10;0.98;;;;;;;14.51;100.00;99398.13;5044209;28;20049;-63
2023/07/31 02:57:19;;;;;;;2.35;1.02;;;;;;;14.54;100.00;99390.00;5032217;28;20075;-63
2023/07/31 02:59:46;;;;;;;4.03;1.10;;;;;;;14.56;100.00;99383.66;5035584;28;20057;-63
2023/07/31 03:02:14;;;;;;;4.30;1.45;;;;;;;14.48;100.00;99387.81;5025169;28;20048;-63
2023/07/31 03:04:40;;;;;;;3.47;1.02;;;;;;;14.57;100.00;99398.53;5032051;28;20053;-63
2023/07/31 03:07:07;;;;;;;3.85;1.23;;;;;;;14.59;100.00;99398.44;5041358;28;20052;-63
2023/07/31 03:09:34;;;;;;;2.35;1.00;;;;;;;14.70;100.00;99385.28;5042806;28;20050;-63
2023/07/31 03:12:00;;;;;;;4.38;1.30;;;;;;;14.71;100.00;99379.03;5025569;28;20380;-63
2023/07/31 03:14:27;;;;;;;3.30;1.25;;;;;;;14.75;100.00;99395.44;5030285;28;20056;-63
2023/07/31 03:16:54;;;;;;;2.33;1.10;;;;;;;14.73;100.00;99385.06;5031614;28;20049;-63
2023/07/31 03:19:21;;;;;;;3.70;1.00;;;;;;;14.75;100.00;99383.13;5031518;28;20045;-63
2023/07/31 03:21:47;;;;;;;3.92;1.10;;;;;;;14.66;100.00;99390.88;5028708;28;20507;-62
2023/07/31 03:24:14;;;;;;;3.05;1.02;;;;;;;14.74;100.00;99391.16;5030027;28;20057;-63
2023/07/31 03:26:43;;;;;;;6.22;1.30;;;;;;;14.68;100.00;99402.16;5031394;28;20508;-63
2023/07/31 03:29:10;;;;;;;3.53;1.00;;;;;;;14.74;100.00;99394.63;5031461;28;20069;-63
2023/07/31 03:31:36;;;;;;;6.28;1.45;;;;;;;14.76;100.00;99394.50;5028844;28;20042;-63
2023/07/31 03:34:03;;;;;;;4.00;1.05;;;;;;;14.57;100.00;99385.34;5030902;28;20049;-63
2023/07/31 03:36:30;;;;;;;4.47;1.52;;;;;;;14.42;100.00;99389.13;5031318;28;20049;-63
2023/07/31 03:38:57;;;;;;;3.17;1.08;;;;;;;14.50;100.00;99394.66;5031122;28;20049;-63
2023/07/31 03:41:23;;;;;;;1.90;1.00;;;;;;;14.73;100.00;99390.31;5021915;28;20052;-63
2023/07/31 03:43:51;;;;;;;3.33;1.20;;;;;;;14.46;100.00;99393.19;5031126;28;20502;-63
2023/07/31 03:46:18;;;;;;;4.95;1.15;;;;;;;14.48;100.00;99401.00;5036916;28;20079;-63
2023/07/31 03:48:45;;;;;;;8.35;1.50;;;;;;;14.47;100.00;99370.38;5044853;28;20049;-63
2023/07/31 03:51:12;;;;;;;4.13;1.35;;;;;;;14.59;100.00;99396.63;5036305;28;20270;-63
2023/07/31 03:53:39;;;;;;;3.25;1.20;;;;;;;14.72;100.00;99387.81;5049945;28;20099;-63
2023/07/31 03:56:05;;;;;;;3.10;1.15;;;;;;;14.88;100.00;99398.84;5044360;28;20067;-63
2023/07/31 03:58:32;;;;;;;4.60;1.20;;;;;;;15.02;100.00;99391.69;5045146;28;20060;-63
2023/07/31 04:00:59;;;;;;;5.30;1.40;;;;;;;15.05;100.00;99394.06;5032139;28;20110;-62
2023/07/31 04:03:26;;;;;;;2.65;1.00;;;;;;;15.22;100.00;99403.28;5041416;28;20776;-63
2023/07/31 04:05:55;;;;;;;4.20;1.08;;;;;;;15.25;100.00;99397.78;5048213;28;20103;-63
2023/07/31 04:08:23;;;;;;;5.07;1.60;;;;;;;15.07;100.00;99390.34;5041219;28;20053;-63
2023/07/31 04:10:49;;;;;;;3.20;1.33;;;;;;;15.17;100.00;99393.09;5035083;28;20046;-63
2023/07/31 04:13:16;;;;;;;4.35;1.10;;;;;;;15.28;100.00;99398.38;5037714;28;20472;-63
2023/07/31 04:15:47;;;;;;;4.50;1.48;;;;;;;15.31;100.00;99398.13;5040377;28;20419;-63
2023/07/31 04:18:14;;;;;;;3.40;1.15;;;;;;;15.34;100.00;99387.34;5036516;28;20044;-64
2023/07/31 04:20:40;;;;;;;3.67;1.30;;;;;;;15.31;100.00;99387.56;5034620;28;20045;-63
2023/07/31 04:23:07;;;;;;;4.95;1.25;;;;;;;15.35;100.00;99394.31;5044589;28;20056;-63
2023/07/31 04:25:34;;;;;;;7.05;1.60;;;;;;;15.39;100.00;99387.00;5029980;28;20045;-63
2023/07/31 04:28:01;;;;;;;4.68;1.33;;;;;;;15.31;100.00;99379.66;5044066;28;20403;-63
2023/07/31 04:30:28;;;;;;;3.33;1.23;;;;;;;15.36;100.00;99384.59;5030215;28;20049;-63
2023/07/31 04:32:54;;;;;;;6.03;1.40;;;;;;;15.44;100.00;99381.34;5024878;28;20053;-63
2023/07/31 04:35:21;;;;;;;3.63;1.35;;;;;;;15.49;100.00;99385.31;5037857;28;20522;-63
2023/07/31 04:37:48;;;;;;;3.47;1.10;;;;;;;15.49;100.00;99385.31;5050170;28;20049;-63
2023/07/31 04:40:18;;;;;;;6.13;1.65;;;;;;;15.51;100.00;99386.03;5030205;28;20112;-63
2023/07/31 04:42:46;;;;;;;5.38;1.42;;;;;;;15.60;100.00;99375.66;5022682;28;20045;-63
2023/07/31 04:45:14;;;;;;;5.13;1.67;;;;;;;15.64;100.00;99385.03;5034488;28;20402;-64
2023/07/31 04:47:41;;;;;;;6.90;1.80;;;;;;;15.59;100.00;99377.47;5048957;28;20048;-64
2023/07/31 04:50:08;;;;;;;8.73;1.90;;;;;;;15.65;100.00;99379.66;5026198;28;20299;-64
2023/07/31 04:52:35;;;;;;;3.65;1.40;;;;;;;15.69;100.00;99367.03;5019614;28;20053;-64
2023/07/31 04:55:01;;;;;;;5.50;1.42;;;;;;;15.81;100.00;99373.13;5030849;28;20072;-64
2023/07/31 04:57:28;;;;;;;4.25;1.27;;;;;;;16.01;100.00;99371.53;5043800;28;20042;-64
2023/07/31 04:59:55;;;;;;;6.55;1.38;;;;;;;16.05;100.00;99365.84;5029530;28;20513;-64
2023/07/31 05:02:21;;;;;;;3.55;1.42;;;;;;;15.96;100.00;99363.97;5027694;28;20270;-65
2023/07/31 05:04:48;;;;;;;3.08;1.35;;;;;;;16.04;100.00;99369.47;5032065;28;20132;-64
2023/07/31 05:07:15;;;;;;;3.95;1.50;;;;;;;16.02;100.00;99366.09;5030223;28;20434;-64
2023/07/31 05:09:42;;;;;;;7.10;1.88;;;;;;;16.09;100.00;99363.81;5028154;28;20131;-64
2023/07/31 05:12:08;;;;;;;7.05;1.48;;;;;;;16.01;100.00;99368.91;5029834;28;20053;-65
2023/07/31 05:14:35;;;;;;;5.18;1.50;;;;;;;15.65;100.00;99376.16;5037482;28;20049;-64
2023/07/31 05:17:02;;;;;;;4.95;1.50;;;;;;;15.55;100.00;99355.78;5036172;28;20489;-65
2023/07/31 05:19:28;;;;;;;3.83;1.30;;;;;;;15.52;100.00;99357.84;5028539;28;20057;-64
2023/07/31 05:21:55;;;;;;;3.80;1.30;;;;;;;15.69;100.00;99356.50;5028235;28;20503;-62
2023/07/31 05:24:22;;;;;;;5.63;1.58;;;;;;;15.58;100.00;99362.59;5032774;28;20049;-63
2023/07/31 05:26:48;;;;;;;3.67;1.42;;;;;;;15.46;100.00;99364.44;5043244;28;20478;-64
2023/07/31 05:29:16;;;;;;;3.22;1.33;;;;;;;15.40;100.00;99349.09;5036085;28;20056;-64
2023/07/31 05:31:44;;;;;;;3.92;1.40;;;;;;;15.45;100.00;99360.13;5038787;28;20045;-64
2023/07/31 05:34:11;;;;;;;3.15;1.33;;;;;;;15.69;100.00;99362.59;5033277;28;20486;-63
2023/07/31 05:36:37;;;;;;;4.78;1.40;;;;;;;15.87;100.00;99341.81;5040330;28;20067;-63
2023/07/31 05:39:08;;;;;;;4.32;1.23;;;;;;;15.79;100.00;99354.78;5042527;28;20458;-64
2023/07/31 05:41:35;;;;;;;4.88;1.40;;;;;;;15.92;100.00;99352.84;5030281;28;20091;-63
2023/07/31 05:44:02;;;;;;;6.50;1.40;;;;;;;16.13;100.00;99346.75;5033167;28;20048;-63
2023/07/31 05:46:29;;;;;;;4.07;1.52;;;;;;;16.20;100.00;99347.94;5041574;28;20055;-63
2023/07/31 05:48:56;;;;;;;7.07;2.10;;;;;;;16.26;100.00;99342.13;5032658;28;20103;-63
2023/07/31 05:51:22;;;;;;;5.18;1.52;;;;;;;16.29;100.00;99349.78;5028416;28;20053;-63
2023/07/31 05:53:49;;;;;;;3.55;1.35;;;;;;;16.41;100.00;99347.91;5032761;28;20041;-63
2023/07/31 05:56:16;;;;;;;5.13;1.60;;;;;;;16.44;100.00;99339.72;5032300;28;20048;-63
2023/07/31 05:58:42;;;;;;;4.80;1.65;;;;;;;16.61;100.00;99337.47;5034911;28;20395;-63
2023/07/31 06:01:09;;;;;;;3.70;1.35;;;;;;;16.54;100.00;99336.31;5024140;28;20065;-63
2023/07/31 06:03:36;;;;;;;6.55;1.92;;;;;;;16.61;100.00;99333.03;5033425;28;20053;-63
2023/07/31 06:06:03;;;;;;;7.47;1.63;;;;;;;16.78;100.00;99334.22;5031815;28;20068;-63
2023/07/31 06:08:29;;;;;;;5.80;1.30;;;;;;;16.97;100.00;99338.78;5032321;28;20056;-63
2023/07/31 06:10:56;;;;;;;7.30;1.75;;;;;;;16.97;100.00;99333.50;5033792;28;20075;-64
2023/07/31 06:13:22;;;;;;;6.70;1.63;;;;;;;17.12;100.00;99330.50;5032307;28;20049;-65
2023/07/31 06:15:49;;;;;;;6.25;1.92;;;;;;;17.17;100.00;99331.75;5031771;28;20053;-65
2023/07/31 06:18:16;;;;;;;8.00;2.28;;;;;;;17.26;100.00;99324.84;5031775;28;20053;-65
2023/07/31 06:20:43;;;;;;;9.98;2.58;;;;;;;17.14;100.00;99326.75;5027147;28;20476;-65
2023/07/31 06:23:09;;;;;;;8.85;2.13;;;;;;;17.27;100.00;99323.88;5031885;28;20049;-65
2023/07/31 06:25:36;;;;;;;8.45;2.13;;;;;;;17.35;100.00;99323.19;5032216;28;20046;-65
2023/07/31 06:28:03;;;;;;;6.60;1.77;;;;;;;17.44;100.00;99319.72;5038832;28;20048;-65
2023/07/31 06:30:29;;;;;;;10.35;2.42;;;;;;;17.44;100.00;99320.56;5030204;28;20056;-65
2023/07/31 06:32:56;;;;;;;5.50;1.70;;;;;;;17.50;100.00;99313.91;5030022;28;20055;-65
2023/07/31 06:35:23;;;;;;;8.45;2.67;;;;;;;17.45;100.00;99314.28;5030758;28;20127;-65
2023/07/31 06:37:50;;;;;;;8.05;1.83;;;;;;;17.49;100.00;99317.50;5018426;28;20411;-65
2023/07/31 06:40:17;;;;;;;6.78;1.92;;;;;;;17.50;100.00;99323.66;5045419;28;20690;-65
2023/07/31 06:42:44;;;;;;;10.45;2.00;;;;;;;17.53;100.00;99320.72;5026452;28;20052;-65
2023/07/31 06:45:11;;;;;;;9.90;2.10;;;;;;;17.43;100.00;99305.66;5031731;28;20060;-65
2023/07/31 06:47:38;;;;;;;8.00;1.70;;;;;;;17.71;100.00;99305.03;5014850;28;20053;-65
2023/07/31 06:50:05;;;;;;;11.95;2.67;;;;;;;17.71;100.00;99305.84;5031994;28;20057;-65
2023/07/31 06:52:32;;;;;;;9.43;2.20;;;;;;;17.70;100.00;99304.16;5025581;28;20045;-65
2023/07/31 06:55:18;;;;;;;6.18;2.03;;;;;;;17.92;100.00;99311.03;5017779;28;20057;-65
2023/07/31 06:57:50;;;;;;;8.95;1.55;;;;;;;18.52;100.00;99304.66;5028777;28;20052;-65
2023/07/31 07:00:18;;;;;;;9.98;1.92;;;;;;;19.48;100.00;99307.91;5035551;28;20514;-65
2023/07/31 07:02:47;;;;;;;8.15;1.83;;;;;;;20.02;100.00;99317.72;5037622;28;20103;-65
2023/07/31 07:05:15;;;;;;;7.85;1.75;;;;;;;20.08;100.00;99315.28;5032233;28;20057;-65
2023/07/31 07:07:42;;;;;;;7.90;1.42;;;;;;;20.42;100.00;99319.03;5030599;28;20084;-65
2023/07/31 07:10:09;;;;;;;5.78;1.30;;;;;;;20.32;100.00;99310.31;5028953;28;20045;-65
2023/07/31 07:12:36;;;;;;;4.88;1.30;;;;;;;20.96;100.00;99309.06;5035073;28;20053;-66
2023/07/31 07:15:03;;;;;;;9.35;1.70;;;;;;;20.81;100.00;99315.97;5040159;28;20060;-66
2023/07/31 07:17:33;;;;;;;10.15;1.80;;;;;;;20.49;100.00;99310.28;5031301;28;20049;-66
2023/07/31 07:20:00;;;;;;;8.27;1.60;;;;;;;21.10;100.00;99310.28;5030899;28;20054;-66
2023/07/31 07:22:27;;;;;;;6.32;1.30;;;;;;;21.30;100.00;99307.34;5027284;28;20522;-66
2023/07/31 07:24:54;;;;;;;6.60;1.35;;;;;;;21.40;100.00;99313.38;5032389;28;20085;-66
2023/07/31 07:27:20;;;;;;;6.80;1.48;;;;;;;20.98;100.00;99308.91;5029874;28;20053;-66
2023/07/31 07:29:50;;;;;;;6.25;1.60;;;;;;;20.77;100.00;99304.81;5036785;28;20049;-66
2023/07/31 07:32:18;;;;;;;8.45;1.27;;;;;;;21.13;100.00;99301.97;5042052;28;20049;-66
2023/07/31 07:34:44;;;;;;;8.18;1.40;;;;;;;20.45;100.00;99303.63;5027887;28;20048;-66
2023/07/31 07:37:11;;;;;;;5.50;1.52;;;;;;;20.78;100.00;99311.78;5029689;28;20510;-66
2023/07/31 07:39:38;;;;;;;3.78;1.00;;;;;;;20.77;100.00;99298.66;5030357;28;20128;-66
2023/07/31 07:42:05;;;;;;;7.47;1.80;;;;;;;20.93;100.00;99306.72;5030281;28;20380;-66
2023/07/31 07:44:31;;;;;;;6.35;1.38;;;;;;;20.84;100.00;99292.56;5032018;28;20054;-66
2023/07/31 07:46:58;;;;;;;6.25;1.50;;;;;;;21.11;100.00;99308.47;5032382;28;20049;-66
2023/07/31 07:49:25;;;;;;;7.55;1.30;;;;;;;20.73;100.00;99287.50;5039618;28;20476;-66
2023/07/31 07:51:51;;;;;;;7.35;1.45;;;;;;;21.08;100.00;99295.47;5029474;28;20045;-66
2023/07/31 07:54:20;;;;;;;3.97;1.00;;;;;;;21.64;100.00;99295.81;5030952;28;20045;-66
2023/07/31 07:56:46;;;;;;;8.45;1.50;;;;;;;21.20;100.00;99291.53;5039909;28;20527;-66
2023/07/31 07:59:13;;;;;;;4.93;1.30;;;;;;;21.13;100.00;99290.50;5021408;28;20401;-66
2023/07/31 08:01:39;;;;;;;6.82;1.33;;;;;;;21.74;100.00;99289.34;5017074;28;20096;-66
2023/07/31 08:04:06;;;;;;;4.85;1.30;;;;;;;21.81;100.00;99273.53;5019277;28;20050;-67
2023/07/31 08:06:33;;;;;;;5.43;1.30;;;;;;;21.64;100.00;99277.16;5010968;28;20062;-67
2023/07/31 08:09:05;;;;;;;6.65;1.10;;;;;;;22.18;100.00;99274.84;5029520;28;20045;-67
2023/07/31 08:11:35;;;;;;;8.27;1.40;;;;;;;21.61;100.00;99273.00;5025859;28;20053;-66
2023/07/31 08:14:02;;;;;;;6.70;1.38;;;;;;;21.76;100.00;99270.53;5027267;28;20373;-67
2023/07/31 08:16:28;;;;;;;5.90;1.10;;;;;;;21.99;100.00;99271.53;5029326;28;20054;-67
2023/07/31 08:18:55;;;;;;;7.45;1.50;;;;;;;22.43;100.00;99277.50;5028973;28;20433;-66
2023/07/31 08:21:22;;;;;;;4.50;1.15;;;;;;;22.26;100.00;99266.03;5028465;28;20466;-66
2023/07/31 08:23:49;;;;;;;5.78;1.48;;;;;;;22.15;100.00;99261.84;5041072;28;20150;-66
2023/07/31 08:26:17;;;;;;;8.48;1.30;;;;;;;22.43;100.00;99265.00;5030395;28;20132;-67
2023/07/31 08:28:44;;;;;;;8.85;1.67;;;;;;;21.92;100.00;99262.56;5029796;28;20065;-66
2023/07/31 08:31:11;;;;;;;5.38;1.45;;;;;;;21.83;100.00;99252.88;5028356;28;20068;-67
2023/07/31 08:33:39;;;;;;;7.18;1.48;;;;;;;21.75;100.00;99267.03;5027936;28;20140;-66
2023/07/31 08:36:06;;;;;;;4.70;1.10;;;;;;;21.57;100.00;99259.19;5030004;28;20088;-67
2023/07/31 08:38:33;;;;;;;5.57;1.40;;;;;;;21.38;100.00;99273.59;5030399;28;20049;-67
2023/07/31 08:41:00;;;;;;;5.25;1.30;;;;;;;21.56;100.00;99262.84;5028727;28;20502;-66
2023/07/31 08:43:27;;;;;;;5.10;1.23;;;;;;;21.17;100.00;99262.56;5028179;28;20057;-67
2023/07/31 08:45:54;;;;;;;9.13;1.42;;;;;;;21.26;100.00;99253.59;5029333;28;20136;-67
2023/07/31 08:48:23;;;;;;;6.45;1.58;;;;;;;20.96;100.00;99260.34;5029391;28;20048;-68
2023/07/31 08:50:52;;;;;;;10.77;1.55;;;;;;;21.53;100.00;99257.00;5016045;28;20097;-67
2023/07/31 08:53:19;;;;;;;4.10;1.20;;;;;;;21.74;100.00;99257.41;5013633;28;20049;-66
2023/07/31 08:55:48;;;;;;;5.25;1.17;;;;;;;21.16;100.00;99247.59;5036311;28;20057;-67
2023/07/31 08:58:17;;;;;;;7.80;1.48;;;;;;;21.25;100.00;99243.97;5028275;28;20061;-67
2023/07/31 09:00:46;;;;;;;6.00;1.20;;;;;;;20.71;100.00;99238.97;5026906;28;20048;-66
2023/07/31 09:03:15;;;;;;;6.40;1.48;;;;;;;20.71;100.00;99252.25;5024389;28;20480;-67
2023/07/31 09:05:44;;;;;;;4.50;1.40;;;;;;;20.96;100.00;99245.19;5030764;28;20060;-67
2023/07/31 09:08:19;;;;;;;5.93;1.65;;;;;;;20.48;100.00;99262.56;5033117;28;20046;-66
2023/07/31 09:10:46;;;;;;;6.90;1.50;;;;;;;20.64;100.00;99246.72;5030306;28;20515;-66
2023/07/31 09:13:14;;;;;;;7.13;1.50;;;;;;;20.72;100.00;99263.75;5031869;28;20509;-66
2023/07/31 09:15:43;;;;;;;9.55;1.75;;;;;;;20.46;100.00;99259.25;5031486;28;20057;-66
2023/07/31 09:18:10;;;;;;;5.68;1.63;;;;;;;20.97;100.00;99244.22;5031463;28;20494;-66
2023/07/31 09:20:38;;;;;;;9.90;1.88;;;;;;;20.29;100.00;99242.34;5026391;28;20060;-66
2023/07/31 09:23:13;;;;;;;7.18;1.73;;;;;;;20.43;100.00;99255.09;5030673;28;20423;-66
2023/07/31 09:25:43;;;;;;;8.23;1.70;;;;;;;21.02;100.00;99252.56;5002448;28;20442;-66
2023/07/31 09:28:11;;;;;;;7.28;1.75;;;;;;;21.41;100.00;99257.31;5026129;28;20330;-66
2023/07/31 09:30:49;;;;;;;8.43;1.88;;;;;;;20.21;100.00;99240.47;5014299;28;20045;-66
2023/07/31 09:33:17;;;;;;;9.38;2.45;;;;;;;20.92;100.00;99251.03;5025844;28;20077;-66
2023/07/31 09:35:44;;;;;;;7.03;1.60;;;;;;;20.24;100.00;99255.31;5029485;28;20362;-66
2023/07/31 09:38:12;;;;;;;8.85;1.92;;;;;;;20.39;100.00;99237.78;5035857;28;20483;-66
2023/07/31 09:40:41;;;;;;;7.57;1.63;;;;;;;20.49;100.00;99246.47;5017341;28;20385;-66
2023/07/31 09:43:13;;;;;;;7.03;1.70;;;;;;;21.14;100.00;99247.78;5029356;28;20049;-67
2023/07/31 09:45:42;;;;;;;6.93;1.90;;;;;;;20.63;100.00;99229.13;5030902;28;20049;-67
2023/07/31 09:48:15;;;;;;;8.10;1.65;;;;;;;20.46;100.00;99243.28;5038059;28;20129;-66
2023/07/31 09:50:45;;;;;;;7.43;1.98;;;;;;;20.64;100.00;99241.41;5023307;28;20531;-67
2023/07/31 09:53:12;;;;;;;8.63;1.88;;;;;;;20.13;100.00;99232.44;5030599;28;20527;-66
2023/07/31 09:55:41;;;;;;;7.93;2.03;;;;;;;20.49;100.00;99238.50;5013774;28;20372;-66
2023/07/31 09:58:09;;;;;;;7.95;1.75;;;;;;;20.82;100.00;99230.72;5024479;28;20050;-67
2023/07/31 10:00:36;;;;;;;10.77;2.05;;;;;;;20.84;100.00;99231.38;5023113;28;20084;-67
2023/07/31 10:03:10;;;;;;;7.40;2.08;;;;;;;20.62;100.00;99224.78;5027392;28;20057;-67
2023/07/31 10:05:45;;;;;;;6.75;1.88;;;;;;;20.71;100.00;99216.84;5030357;28;20057;-67
2023/07/31 10:08:15;;;;;;;6.78;2.03;;;;;;;20.52;100.00;99215.25;5032236;28;20088;-66
2023/07/31 10:10:46;;;;;;;7.93;1.85;;;;;;;20.88;100.00;99226.56;5025371;28;20046;-66
2023/07/31 10:13:14;;;;;;;15.18;2.45;;;;;;;21.34;100.00;99220.88;5046555;28;20049;-65
2023/07/31 10:15:43;;;;;;;12.25;2.05;;;;;;;21.67;100.00;99229.72;5042927;28;20054;-65
2023/07/31 10:18:11;;;;;;;6.53;1.52;;;;;;;21.61;100.00;99235.72;5013061;28;20060;-65
2023/07/31 10:20:38;;;;;;;6.53;1.63;;;;;;;21.63;100.00;99225.75;5026742;28;20403;-66
2023/07/31 10:23:06;;;;;;;8.38;1.60;;;;;;;21.87;100.00;99216.06;5032091;28;20494;-67
2023/07/31 10:25:34;;;;;;;5.20;1.40;;;;;;;22.19;100.00;99220.53;5031569;28;20048;-66
2023/07/31 10:28:00;;;;;;;4.80;1.50;;;;;;;21.92;100.00;99217.25;5030709;28;20426;-66
2023/07/31 10:30:30;;;;;;;10.18;2.30;;;;;;;21.59;100.00;99205.78;5027165;28;20045;-67
2023/07/31 10:32:58;;;;;;;5.15;1.50;;;;;;;21.54;100.00;99210.75;5024104;28;20096;-66
2023/07/31 10:35:25;;;;;;;4.30;1.20;;;;;;;21.46;100.00;99205.41;5026314;28;20462;-66
2023/07/31 10:37:52;;;;;;;5.07;1.52;;;;;;;21.62;100.00;99202.78;5024567;28;20045;-66
2023/07/31 10:40:25;;;;;;;7.30;1.70;;;;;;;21.66;100.00;99204.13;5026531;28;20538;-67
2023/07/31 10:42:53;;;;;;;7.93;1.98;;;;;;;21.23;100.00;99190.91;5027114;28;20049;-67
2023/07/31 10:45:26;;;;;;;6.07;1.70;;;;;;;21.33;100.00;99197.91;5030519;28;20475;-66
2023/07/31 10:48:03;;;;;;;6.00;1.63;;;;;;;21.32;100.00;99198.88;5030809;28;20554;-66
2023/07/31 10:50:34;;;;;;;5.15;1.50;;;;;;;21.27;100.00;99198.56;5029617;28;20063;-66
2023/07/31 10:53:01;;;;;;;5.35;1.48;;;;;;;21.45;100.00;99198.41;5035252;28;20530;-67
2023/07/31 10:55:32;;;;;;;8.75;1.67;;;;;;;21.19;100.00;99199.38;5030668;28;20524;-67
2023/07/31 10:58:10;;;;;;;5.35;1.42;;;;;;;21.19;100.00;99189.53;5026221;28;20502;-67
2023/07/31 11:00:39;;;;;;;5.85;1.55;;;;;;;21.08;100.00;99194.38;5026626;28;20054;-67
2023/07/31 11:03:10;;;;;;;6.32;1.50;;;;;;;21.28;100.00;99190.38;5029443;28;20045;-65
2023/07/31 11:05:49;;;;;;;7.07;1.80;;;;;;;21.19;100.00;99186.88;5030359;28;20472;-66
2023/07/31 11:08:27;;;;;;;6.43;1.60;;;;;;;21.06;100.00;99183.88;5029497;28;20049;-67
2023/07/31 11:11:03;;;;;;;6.30;1.40;;;;;;;21.00;100.00;99185.38;5022996;28;20046;-66
2023/07/31 11:13:39;;;;;;;6.60;1.60;;;;;;;20.91;100.00;99181.03;5037606;28;20478;-66
2023/07/31 11:16:06;;;;;;;4.82;1.38;;;;;;;20.69;100.00;99174.47;5033498;28;20050;-67
2023/07/31 11:18:33;;;;;;;8.98;1.88;;;;;;;20.99;100.00;99170.38;5025263;28;20103;-66
2023/07/31 11:21:00;;;;;;;9.10;2.17;;;;;;;20.92;100.00;99153.41;5027500;28;20079;-66
2023/07/31 11:23:26;;;;;;;6.95;1.50;;;;;;;21.10;100.00;99171.09;5030008;28;20581;-66
2023/07/31 11:25:59;;;;;;;8.10;1.55;;;;;;;21.10;100.00;99165.75;5029072;28;20497;-67
2023/07/31 11:28:26;;;;;;;6.65;1.67;;;;;;;21.22;100.00;99159.94;5035597;28;20483;-66